createdAt,value
2022-12-27T00:00:34.745Z,61.20
2022-12-27T00:03:03.363Z,62.33
2022-12-27T00:05:31.998Z,63.70
2022-12-27T00:08:00.536Z,60.97
2022-12-27T00:10:29.216Z,64.70
2022-12-27T00:12:59.240Z,64.87
2022-12-27T00:15:32.360Z,64.37
2022-12-27T00:18:00.796Z,64.67
2022-12-27T00:20:32.095Z,70.63
2022-12-27T00:23:01.640Z,70.93
2022-12-27T00:25:30.038Z,66.20
2022-12-27T00:27:59.822Z,65.10
2022-12-27T00:30:28.144Z,65.57
2022-12-27T00:32:56.609Z,68.43
2022-12-27T00:35:24.906Z,67.73
2022-12-27T00:37:53.335Z,70.10
2022-12-27T00:40:21.859Z,64.73
2022-12-27T00:42:50.317Z,66.90
2022-12-27T00:45:20.253Z,69.37
2022-12-27T00:47:48.661Z,66.70
2022-12-27T00:50:17.105Z,69.93
2022-12-27T00:52:45.595Z,68.07
2022-12-27T00:55:16.382Z,70.40
2022-12-27T00:57:45.111Z,71.07
2022-12-27T01:00:14.727Z,72.17
2022-12-27T01:02:44.579Z,67.77
2022-12-27T01:05:13.444Z,68.73
2022-12-27T01:07:42.061Z,67.17
2022-12-27T01:10:11.128Z,67.30
2022-12-27T01:12:42.246Z,67.40
2022-12-27T01:15:14.759Z,65.17
2022-12-27T01:17:45.475Z,68.00
2022-12-27T01:20:15.856Z,66.63
2022-12-27T01:22:44.318Z,65.60
2022-12-27T01:25:12.869Z,67.07
2022-12-27T01:27:41.460Z,67.23
2022-12-27T01:30:11.089Z,66.77
2022-12-27T01:32:39.546Z,63.00
2022-12-27T01:35:10.587Z,67.20
2022-12-27T01:37:38.904Z,68.73
2022-12-27T01:40:10.812Z,68.70
2022-12-27T01:42:53.262Z,66.97
2022-12-27T01:45:23.134Z,69.43
2022-12-27T01:47:59.823Z,67.83
2022-12-27T01:50:37.181Z,66.20
2022-12-27T01:53:10.203Z,66.37
2022-12-27T01:55:43.894Z,65.17
2022-12-27T01:58:19.222Z,69.50
2022-12-27T02:00:49.646Z,66.30
2022-12-27T02:03:22.969Z,64.30
2022-12-27T02:05:53.062Z,65.37
2022-12-27T02:08:31.501Z,65.20
2022-12-27T02:11:00.567Z,64.70
2022-12-27T02:13:35.651Z,63.17
2022-12-27T02:16:10.973Z,66.90
2022-12-27T02:18:39.558Z,65.67
2022-12-27T02:21:40.888Z,71.03
2022-12-27T02:24:42.541Z,69.20
2022-12-27T02:27:25.409Z,67.70
2022-12-27T02:30:00.572Z,67.50
2022-12-27T02:32:32.985Z,66.17
2022-12-27T02:35:10.952Z,70.50
2022-12-27T02:37:43.909Z,65.50
2022-12-27T02:40:31.618Z,66.37
2022-12-27T02:43:18.185Z,63.23
2022-12-27T02:46:21.427Z,57.53
2022-12-27T02:49:26.733Z,62.30
2022-12-27T02:52:28.428Z,60.00
2022-12-27T02:55:16.637Z,61.23
2022-12-27T02:57:52.493Z,58.40
2022-12-27T03:00:40.267Z,58.23
2022-12-27T03:03:44.269Z,62.13
2022-12-27T03:06:42.835Z,55.17
2022-12-27T03:09:48.236Z,60.50
2022-12-27T03:12:42.440Z,55.57
2022-12-27T03:15:43.689Z,55.97
2022-12-27T03:18:18.379Z,54.73
2022-12-27T03:21:07.487Z,55.63
2022-12-27T03:23:54.125Z,52.80
2022-12-27T03:26:27.472Z,52.70
2022-12-27T03:29:14.535Z,51.87
2022-12-27T03:32:04.914Z,53.10
2022-12-27T03:34:44.944Z,54.63
2022-12-27T03:37:34.660Z,52.40
2022-12-27T03:40:10.836Z,50.57
2022-12-27T03:43:02.041Z,49.80
2022-12-27T03:45:54.017Z,48.60
2022-12-27T03:48:29.326Z,49.43
2022-12-27T03:51:07.582Z,50.50
2022-12-27T03:53:40.673Z,48.87
2022-12-27T03:56:10.314Z,46.20
2022-12-27T03:58:38.809Z,45.57
2022-12-27T04:01:07.600Z,44.67
2022-12-27T04:03:36.162Z,44.03
2022-12-27T04:06:04.792Z,44.93
2022-12-27T04:08:50.588Z,43.67
2022-12-27T04:11:40.249Z,39.70
2022-12-27T04:14:26.313Z,40.30
2022-12-27T04:17:12.333Z,43.60
2022-12-27T04:19:58.112Z,40.77
2022-12-27T04:22:44.162Z,42.90
2022-12-27T04:25:29.633Z,40.30
2022-12-27T04:28:18.120Z,41.63
2022-12-27T04:31:04.185Z,38.97
2022-12-27T04:33:50.407Z,41.30
2022-12-27T04:36:18.862Z,41.83
2022-12-27T04:38:50.263Z,40.40
2022-12-27T04:41:36.237Z,41.33
2022-12-27T04:44:23.572Z,41.30
2022-12-27T04:47:09.401Z,43.70
2022-12-27T04:49:55.252Z,43.87
2022-12-27T04:52:43.083Z,40.87
2022-12-27T04:55:19.008Z,41.47
2022-12-27T04:57:47.546Z,38.73
2022-12-27T05:00:36.711Z,38.60
2022-12-27T05:03:08.795Z,39.00
2022-12-27T05:05:39.142Z,38.90
2022-12-27T05:08:26.033Z,39.60
2022-12-27T05:11:11.965Z,38.27
2022-12-27T05:13:57.817Z,39.40
2022-12-27T05:16:30.784Z,43.70
2022-12-27T05:18:59.535Z,41.80
2022-12-27T05:21:28.440Z,43.07
2022-12-27T05:24:14.207Z,44.60
2022-12-27T05:26:42.728Z,37.40
2022-12-27T05:29:12.715Z,41.23
2022-12-27T05:31:42.628Z,41.27
2022-12-27T05:34:11.071Z,37.87
2022-12-27T05:36:41.567Z,40.80
2022-12-27T05:39:11.116Z,40.90
2022-12-27T05:41:39.518Z,41.57
2022-12-27T05:44:08.020Z,37.23
2022-12-27T05:46:37.492Z,40.73
2022-12-27T05:49:07.489Z,40.50
2022-12-27T05:51:35.884Z,41.67
2022-12-27T05:54:04.349Z,41.27
2022-12-27T05:56:37.326Z,43.90
2022-12-27T05:59:08.163Z,40.77
2022-12-27T06:01:36.685Z,43.20
2022-12-27T06:04:06.777Z,40.83
2022-12-27T06:06:35.476Z,42.97
2022-12-27T06:09:03.888Z,42.40
2022-12-27T06:11:32.343Z,41.20
2022-12-27T06:14:00.821Z,37.57
2022-12-27T06:16:29.436Z,37.53
2022-12-27T06:18:57.916Z,35.03
2022-12-27T06:21:27.989Z,34.23
2022-12-27T06:23:58.852Z,32.87
2022-12-27T06:26:30.026Z,31.87
2022-12-27T06:28:59.621Z,33.10
2022-12-27T06:31:31.174Z,29.97
2022-12-27T06:33:59.634Z,28.27
2022-12-27T06:36:30.371Z,27.80
2022-12-27T06:38:58.934Z,25.20
2022-12-27T06:41:29.360Z,23.80
2022-12-27T06:44:01.657Z,23.33
2022-12-27T06:46:30.131Z,23.73
2022-12-27T06:48:59.802Z,23.43
2022-12-27T06:51:29.697Z,22.33
2022-12-27T06:53:58.153Z,20.00
2022-12-27T06:56:26.568Z,21.73
2022-12-27T06:58:55.100Z,20.30
2022-12-27T07:01:25.469Z,22.17
2022-12-27T07:03:55.737Z,24.47
2022-12-27T07:06:26.185Z,24.60
2022-12-27T07:08:57.883Z,24.57
2022-12-27T07:11:26.918Z,27.60
2022-12-27T07:13:57.016Z,32.40
2022-12-27T07:16:27.621Z,31.83
2022-12-27T07:18:57.470Z,29.97
2022-12-27T07:21:27.901Z,29.70
2022-12-27T07:24:00.055Z,31.10
2022-12-27T07:26:30.698Z,32.30
2022-12-27T07:29:01.203Z,32.03
2022-12-27T07:31:32.008Z,30.33
2022-12-27T07:34:02.708Z,30.37
2022-12-27T07:36:35.449Z,28.10
2022-12-27T07:39:06.406Z,25.13
2022-12-27T07:41:35.167Z,21.30
2022-12-27T07:44:04.112Z,19.20
2022-12-27T07:46:32.972Z,18.90
2022-12-27T07:49:01.604Z,18.47
2022-12-27T07:51:30.677Z,20.40
2022-12-27T07:53:59.165Z,19.40
2022-12-27T07:56:30.342Z,17.30
2022-12-27T07:59:00.689Z,17.97
2022-12-27T08:01:32.856Z,18.70
2022-12-27T08:04:01.415Z,17.83
2022-12-27T08:06:35.022Z,17.07
2022-12-27T08:09:07.583Z,18.53
2022-12-27T08:11:37.479Z,20.90
2022-12-27T08:14:05.892Z,24.90
2022-12-27T08:16:34.374Z,26.60
2022-12-27T08:19:08.144Z,26.33
2022-12-27T08:21:37.105Z,25.07
2022-12-27T08:24:08.358Z,24.60
2022-12-27T08:26:38.121Z,25.00
2022-12-27T08:29:09.629Z,27.43
2022-12-27T08:31:38.161Z,28.23
2022-12-27T08:34:06.667Z,24.63
2022-12-27T08:39:24.440Z,24.10
2022-12-27T08:41:55.128Z,23.90
2022-12-27T08:44:23.678Z,23.73
2022-12-27T08:46:52.221Z,23.60
2022-12-27T08:49:20.722Z,21.40
2022-12-27T08:51:49.075Z,24.30
2022-12-27T08:54:17.491Z,24.10
2022-12-27T08:56:45.872Z,24.10
2022-12-27T08:59:15.690Z,25.20
2022-12-27T09:01:45.191Z,25.43
2022-12-27T09:04:13.722Z,26.33
2022-12-27T09:06:42.202Z,24.83
2022-12-27T09:09:10.673Z,26.17
2022-12-27T09:11:39.056Z,25.60
2022-12-27T09:14:07.610Z,26.07
2022-12-27T09:16:38.217Z,26.47
2022-12-27T09:19:07.101Z,23.40
2022-12-27T09:21:36.451Z,23.03
2022-12-27T09:24:05.264Z,25.60
2022-12-27T09:26:33.771Z,23.90
2022-12-27T09:29:02.331Z,23.60
2022-12-27T09:31:31.147Z,25.47
2022-12-27T09:34:01.062Z,24.47
2022-12-27T09:36:31.078Z,24.33
2022-12-27T09:38:59.923Z,24.60
2022-12-27T09:44:47.142Z,26.23
2022-12-27T09:47:20.473Z,28.10
2022-12-27T09:49:54.107Z,27.23
2022-12-27T09:52:27.233Z,28.00
2022-12-27T09:55:05.152Z,28.40
2022-12-27T09:57:38.538Z,28.87
2022-12-27T10:00:15.765Z,29.07
2022-12-27T10:02:45.462Z,28.80
2022-12-27T10:05:22.490Z,28.87
2022-12-27T10:08:03.517Z,27.93
2022-12-27T10:10:42.792Z,28.80
2022-12-27T10:13:24.673Z,29.40
2022-12-27T10:16:10.638Z,29.60
2022-12-27T10:18:49.527Z,30.60
2022-12-27T10:21:23.198Z,31.27
2022-12-27T10:23:57.143Z,31.37
2022-12-27T10:26:25.763Z,31.07
2022-12-27T10:28:59.946Z,31.70
2022-12-27T10:31:29.350Z,30.77
2022-12-27T10:33:58.746Z,33.83
2022-12-27T10:36:33.432Z,33.67
2022-12-27T10:39:04.561Z,31.40
2022-12-27T10:41:50.185Z,30.23
2022-12-27T10:44:18.752Z,29.20
2022-12-27T10:46:53.457Z,30.87
2022-12-27T10:49:25.683Z,32.30
2022-12-27T10:51:58.127Z,29.23
2022-12-27T10:54:28.501Z,29.87
2022-12-27T10:56:58.241Z,30.30
2022-12-27T10:59:28.365Z,30.50
2022-12-27T11:02:17.800Z,30.07
2022-12-27T11:05:19.382Z,31.67
2022-12-27T11:07:49.266Z,31.00
2022-12-27T11:10:19.745Z,31.60
2022-12-27T11:12:58.040Z,33.37
2022-12-27T11:15:27.630Z,31.40
2022-12-27T11:17:58.741Z,32.87
2022-12-27T11:20:30.785Z,31.73
2022-12-27T11:23:04.866Z,31.47
2022-12-27T11:25:34.517Z,31.43
2022-12-27T11:28:06.692Z,31.73
2022-12-27T11:30:41.206Z,29.97
2022-12-27T11:33:24.747Z,33.03
2022-12-27T11:35:56.983Z,30.80
2022-12-27T11:38:29.209Z,29.80
2022-12-27T11:41:03.408Z,35.90
2022-12-27T11:43:40.422Z,31.63
2022-12-27T11:46:15.801Z,32.03
2022-12-27T11:48:46.736Z,31.87
2022-12-27T11:51:31.219Z,31.77
2022-12-27T11:54:18.071Z,33.37
2022-12-27T11:56:51.643Z,34.43
2022-12-27T11:59:40.871Z,34.87
2022-12-27T12:02:33.691Z,33.97
2022-12-27T12:05:31.462Z,33.20
2022-12-27T12:08:24.893Z,33.47
2022-12-27T12:11:05.157Z,33.47
2022-12-27T12:14:02.415Z,34.90
2022-12-27T12:16:51.876Z,35.07
2022-12-27T12:19:55.504Z,36.80
2022-12-27T12:22:40.489Z,35.50
2022-12-27T12:25:38.321Z,35.10
2022-12-27T12:29:00.794Z,38.77
2022-12-27T12:31:47.914Z,38.00
2022-12-27T12:34:32.115Z,37.90
2022-12-27T12:37:13.260Z,39.87
2022-12-27T12:40:04.955Z,37.03
2022-12-27T12:42:41.890Z,36.27
2022-12-27T12:45:44.689Z,37.17
2022-12-27T12:48:42.740Z,37.67
2022-12-27T12:51:34.211Z,37.17
2022-12-27T12:54:22.993Z,37.60
2022-12-27T12:57:07.624Z,36.63
2022-12-27T13:00:02.066Z,37.70
2022-12-27T13:03:01.511Z,36.50
2022-12-27T13:05:39.921Z,35.67
2022-12-27T13:08:16.778Z,36.63
2022-12-27T13:11:14.294Z,36.97
2022-12-27T13:13:54.703Z,36.93
2022-12-27T13:16:33.681Z,35.47
2022-12-27T13:19:14.419Z,38.17
2022-12-27T13:22:00.619Z,38.70
2022-12-27T13:24:43.893Z,40.03
2022-12-27T13:27:21.381Z,41.57
2022-12-27T13:30:06.296Z,41.77
2022-12-27T13:32:53.890Z,40.00
2022-12-27T13:35:43.612Z,41.67
2022-12-27T13:38:33.196Z,41.00
2022-12-27T13:41:16.372Z,42.10
2022-12-27T13:43:54.862Z,41.80
2022-12-27T13:46:54.075Z,39.70
2022-12-27T13:49:54.151Z,40.70
2022-12-27T13:52:43.495Z,42.03
2022-12-27T13:55:41.090Z,40.43
2022-12-27T13:58:45.346Z,37.07
2022-12-27T14:01:33.284Z,38.80
2022-12-27T14:04:25.175Z,38.50
2022-12-27T14:07:37.183Z,39.23
2022-12-27T14:10:16.345Z,40.30
2022-12-27T14:12:59.576Z,47.03
2022-12-27T14:15:44.384Z,45.27
2022-12-27T14:18:31.321Z,43.17
2022-12-27T14:21:16.354Z,42.00
2022-12-27T14:23:58.642Z,41.07
2022-12-27T14:26:50.515Z,42.80
2022-12-27T14:30:03.753Z,41.73
2022-12-27T14:33:05.946Z,45.40
2022-12-27T14:36:09.849Z,44.60
2022-12-27T14:39:15.693Z,44.70
2022-12-27T14:42:20.097Z,42.03
2022-12-27T14:45:30.205Z,47.70
2022-12-27T14:48:36.117Z,45.60
2022-12-27T14:51:59.277Z,44.43
2022-12-27T14:55:00.561Z,43.77
2022-12-27T14:57:43.259Z,44.77
2022-12-27T15:00:17.604Z,44.07
2022-12-27T15:03:09.954Z,46.00
2022-12-27T15:05:49.520Z,45.00
2022-12-27T15:08:54.395Z,47.03
2022-12-27T15:11:39.234Z,46.30
2022-12-27T15:14:26.723Z,48.30
2022-12-27T15:17:06.164Z,48.80
2022-12-27T15:19:55.840Z,48.97
2022-12-27T15:22:31.124Z,49.13
2022-12-27T15:25:14.212Z,44.90
2022-12-27T15:27:50.218Z,48.43
2022-12-27T15:30:25.270Z,46.63
2022-12-27T15:33:05.571Z,47.97
2022-12-27T15:35:50.812Z,50.77
2022-12-27T15:38:38.947Z,47.57
2022-12-27T15:41:30.540Z,51.97
2022-12-27T15:44:27.252Z,49.80
2022-12-27T15:47:15.576Z,46.50
2022-12-27T15:50:30.435Z,50.37
2022-12-27T15:53:13.808Z,52.00
2022-12-27T15:56:11.757Z,51.07
2022-12-27T15:58:40.645Z,50.60
2022-12-27T16:01:29.980Z,51.90
2022-12-27T16:04:20.486Z,48.37
2022-12-27T16:07:02.238Z,50.83
2022-12-27T16:09:39.513Z,49.43
2022-12-27T16:12:13.243Z,51.87
2022-12-27T16:14:44.399Z,54.17
2022-12-27T16:17:32.968Z,50.50
2022-12-27T16:20:20.012Z,54.33
2022-12-27T16:22:54.354Z,50.93
2022-12-27T16:25:31.059Z,50.23
2022-12-27T16:28:03.865Z,51.57
2022-12-27T16:30:43.873Z,49.90
2022-12-27T16:33:37.455Z,51.80
2022-12-27T16:36:15.413Z,51.03
2022-12-27T16:38:51.910Z,53.33
2022-12-27T16:41:35.675Z,52.13
2022-12-27T16:44:16.969Z,50.93
2022-12-27T16:46:59.307Z,50.27
2022-12-27T16:49:57.796Z,50.23
2022-12-27T16:52:51.762Z,50.40
2022-12-27T16:55:58.412Z,54.70
2022-12-27T16:58:36.202Z,55.13
2022-12-27T17:01:06.776Z,53.90
2022-12-27T17:03:49.281Z,59.47
2022-12-27T17:07:03.010Z,54.30
2022-12-27T17:09:45.231Z,53.03
2022-12-27T17:12:23.899Z,49.80
2022-12-27T17:15:00.337Z,57.87
2022-12-27T17:17:30.005Z,57.37
2022-12-27T17:20:03.068Z,56.00
2022-12-27T17:22:35.301Z,56.77
2022-12-27T17:25:04.905Z,66.17
2022-12-27T17:27:58.895Z,55.80
2022-12-27T17:30:35.717Z,61.10
2022-12-27T17:33:21.220Z,57.93
2022-12-27T17:36:05.714Z,52.90
2022-12-27T17:38:45.402Z,53.10
2022-12-27T17:41:41.929Z,53.60
2022-12-27T17:44:41.294Z,51.17
2022-12-27T17:47:20.976Z,53.90
2022-12-27T17:49:49.877Z,54.70
2022-12-27T17:52:37.913Z,55.80
2022-12-27T17:55:38.773Z,52.70
2022-12-27T17:58:09.710Z,53.53
2022-12-27T18:00:45.552Z,53.40
2022-12-27T18:03:15.695Z,51.50
2022-12-27T18:05:47.394Z,51.63
2022-12-27T18:08:23.902Z,52.07
2022-12-27T18:10:52.817Z,51.83
2022-12-27T18:13:24.326Z,51.73
2022-12-27T18:15:55.125Z,55.20
2022-12-27T18:18:27.898Z,51.97
2022-12-27T18:20:59.747Z,50.57
2022-12-27T18:23:29.032Z,52.30
2022-12-27T18:26:03.302Z,52.37
2022-12-27T18:28:35.390Z,57.50
2022-12-27T18:31:13.205Z,59.80
2022-12-27T18:33:45.665Z,55.10
2022-12-27T18:36:22.532Z,54.40
2022-12-27T18:38:56.415Z,55.00
2022-12-27T18:41:25.840Z,52.10
2022-12-27T18:43:59.777Z,55.00
2022-12-27T18:46:32.383Z,54.17
2022-12-27T18:49:02.178Z,51.50
2022-12-27T18:51:32.901Z,54.83
2022-12-27T18:54:02.319Z,57.20
2022-12-27T18:56:33.908Z,53.60
2022-12-27T18:59:05.819Z,57.57
2022-12-27T19:01:44.171Z,52.47
2022-12-27T19:04:23.999Z,54.40
2022-12-27T19:06:56.950Z,56.10
2022-12-27T19:09:30.047Z,54.10
2022-12-27T19:12:01.415Z,52.53
2022-12-27T19:14:37.374Z,54.70
2022-12-27T19:17:11.297Z,54.80
2022-12-27T19:19:40.049Z,53.80
2022-12-27T19:22:35.406Z,54.77
2022-12-27T19:25:06.848Z,58.60
2022-12-27T19:27:37.522Z,54.47
2022-12-27T19:30:07.503Z,58.83
2022-12-27T19:32:39.812Z,62.27
2022-12-27T19:35:08.772Z,60.40
2022-12-27T19:37:39.699Z,57.57
2022-12-27T19:40:14.607Z,64.63
2022-12-27T19:42:43.777Z,63.10
2022-12-27T19:45:15.452Z,60.17
2022-12-27T19:47:45.323Z,57.77
2022-12-27T19:50:13.880Z,57.00
2022-12-27T19:52:42.470Z,57.37
2022-12-27T19:55:21.047Z,53.47
2022-12-27T19:57:49.508Z,58.00
2022-12-27T20:00:23.173Z,55.60
2022-12-27T20:02:53.089Z,56.33
2022-12-27T20:06:12.600Z,56.00
2022-12-27T20:08:24.513Z,58.67
2022-12-27T20:10:53.355Z,54.60
2022-12-27T20:13:22.225Z,60.63
2022-12-27T20:15:52.073Z,64.20
2022-12-27T20:18:22.214Z,59.97
2022-12-27T20:20:51.612Z,57.00
2022-12-27T20:23:20.708Z,55.43
2022-12-27T20:25:50.941Z,61.70
2022-12-27T20:28:20.098Z,58.57
2022-12-27T20:30:48.976Z,54.90
2022-12-27T20:33:17.511Z,56.30
2022-12-27T20:35:57.451Z,54.97
2022-12-27T20:38:26.837Z,58.37
2022-12-27T20:40:55.350Z,57.20
2022-12-27T20:43:23.796Z,57.87
2022-12-27T20:45:52.328Z,51.77
2022-12-27T20:48:20.860Z,59.87
2022-12-27T20:50:51.171Z,57.30
2022-12-27T20:53:19.585Z,58.90
2022-12-27T20:55:59.116Z,56.90
2022-12-27T20:58:27.588Z,55.97
2022-12-27T21:00:56.314Z,55.63
2022-12-27T21:03:24.798Z,55.23
2022-12-27T21:05:54.791Z,57.50
2022-12-27T21:08:23.260Z,58.07
2022-12-27T21:10:51.866Z,56.17
2022-12-27T21:13:20.869Z,58.30
2022-12-27T21:15:49.431Z,56.90
2022-12-27T21:18:18.134Z,55.60
2022-12-27T21:20:46.641Z,55.57
2022-12-27T21:23:16.427Z,57.47
2022-12-27T21:25:44.916Z,52.87
2022-12-27T21:28:13.635Z,57.37
2022-12-27T21:30:42.093Z,54.67
2022-12-27T21:33:10.491Z,53.17
2022-12-27T21:35:39.205Z,53.57
2022-12-27T21:38:07.832Z,54.03
2022-12-27T21:40:38.442Z,56.03
2022-12-27T21:43:06.917Z,57.03
2022-12-27T21:45:37.089Z,56.93
2022-12-27T21:48:05.598Z,56.67
2022-12-27T21:50:37.396Z,54.50
2022-12-27T21:53:06.175Z,52.57
2022-12-27T21:56:36.767Z,59.10
2022-12-27T21:59:11.041Z,54.10
2022-12-27T22:01:49.575Z,54.80
2022-12-27T22:04:19.424Z,54.17
2022-12-27T22:06:48.325Z,54.37
2022-12-27T22:09:16.887Z,58.33
2022-12-27T22:11:45.414Z,59.53
2022-12-27T22:14:15.310Z,60.50
2022-12-27T22:16:43.857Z,62.00
2022-12-27T22:19:14.519Z,57.93
2022-12-27T22:21:43.285Z,59.20
2022-12-27T22:24:19.525Z,63.80
2022-12-27T22:26:50.173Z,58.50
2022-12-27T22:29:21.721Z,62.07
2022-12-27T22:31:50.169Z,55.53
2022-12-27T22:34:18.610Z,56.17
2022-12-27T22:36:47.060Z,56.97
2022-12-27T22:39:15.614Z,58.17
2022-12-27T22:41:44.094Z,56.40
2022-12-27T22:44:14.343Z,58.43
2022-12-27T22:47:15.620Z,56.50
2022-12-27T22:49:32.939Z,54.73
2022-12-27T22:52:01.537Z,54.80
2022-12-27T22:55:05.484Z,54.43
2022-12-27T22:57:18.582Z,57.30
2022-12-27T22:59:47.164Z,53.27
2022-12-27T23:02:17.209Z,53.37
2022-12-27T23:04:45.912Z,54.67
2022-12-27T23:07:14.505Z,54.40
2022-12-27T23:09:43.799Z,54.83
2022-12-27T23:12:12.725Z,58.00
2022-12-27T23:14:43.460Z,55.70
2022-12-27T23:17:11.857Z,57.50
2022-12-27T23:19:41.693Z,57.00
2022-12-27T23:22:10.233Z,58.87
2022-12-27T23:24:38.815Z,58.23
2022-12-27T23:27:07.300Z,60.80
2022-12-27T23:29:35.904Z,62.70
2022-12-27T23:32:04.538Z,58.53
2022-12-27T23:34:32.931Z,60.37
2022-12-27T23:37:02.990Z,62.73
2022-12-27T23:39:31.396Z,63.77
2022-12-27T23:41:59.873Z,63.07
2022-12-27T23:44:33.916Z,64.10
2022-12-27T23:47:06.433Z,63.27
2022-12-27T23:49:35.552Z,63.70
2022-12-27T23:52:06.798Z,62.20
2022-12-27T23:54:35.359Z,66.37
2022-12-27T23:57:20.307Z,62.37
2022-12-27T23:59:51.778Z,62.67
